createdAt,value
2019-02-28T00:00:06.613Z,9.90
2019-02-28T00:05:11.171Z,9.87
2019-02-28T00:10:16.646Z,9.86
2019-02-28T00:15:22.139Z,9.84
2019-02-28T00:20:29.153Z,9.81
2019-02-28T00:25:37.517Z,9.76
2019-02-28T00:30:42.361Z,9.70
2019-02-28T00:35:47.763Z,9.65
2019-02-28T00:40:54.211Z,9.60
2019-02-28T00:45:59.805Z,9.58
2019-02-28T00:51:05.453Z,9.63
2019-02-28T00:56:11.452Z,9.71
2019-02-28T01:01:16.905Z,9.78
2019-02-28T01:06:22.493Z,9.81
2019-02-28T01:11:28.233Z,9.80
2019-02-28T01:16:33.959Z,9.79
2019-02-28T01:21:39.719Z,9.75
2019-02-28T01:26:46.766Z,9.75
2019-02-28T01:31:52.152Z,9.74
2019-02-28T01:36:57.781Z,9.70
2019-02-28T01:42:03.307Z,9.66
2019-02-28T01:47:09.010Z,9.62
2019-02-28T01:52:14.512Z,9.54
2019-02-28T01:57:19.929Z,9.48
2019-02-28T02:02:25.605Z,9.44
2019-02-28T02:07:33.344Z,9.43
2019-02-28T02:12:38.043Z,9.47
2019-02-28T02:17:43.455Z,9.51
2019-02-28T02:22:48.926Z,9.49
2019-02-28T02:27:54.449Z,9.46
2019-02-28T02:32:59.987Z,9.45
2019-02-28T02:38:05.474Z,9.47
2019-02-28T02:43:11.007Z,9.47
2019-02-28T02:48:16.595Z,9.42
2019-02-28T02:53:22.097Z,9.36
2019-02-28T02:58:28.199Z,9.30
2019-02-28T03:03:33.623Z,9.23
2019-02-28T03:08:39.365Z,9.17
2019-02-28T03:13:44.924Z,9.13
2019-02-28T03:18:56.553Z,9.08
2019-02-28T03:23:57.574Z,9.03
2019-02-28T03:29:07.508Z,8.97
2019-02-28T03:34:13.755Z,8.93
2019-02-28T03:39:24.229Z,8.89
2019-02-28T03:44:24.761Z,8.85
2019-02-28T03:49:30.176Z,8.83
2019-02-28T03:54:35.684Z,8.81
2019-02-28T03:59:41.743Z,8.76
2019-02-28T04:04:50.199Z,8.73
2019-02-28T04:09:54.323Z,8.70
2019-02-28T04:14:59.813Z,8.67
2019-02-28T04:20:05.532Z,8.62
2019-02-28T04:25:11.111Z,8.58
2019-02-28T04:30:16.637Z,8.54
2019-02-28T04:35:25.261Z,8.48
2019-02-28T04:40:29.523Z,8.43
2019-02-28T04:45:35.291Z,8.40
2019-02-28T04:50:40.750Z,8.39
2019-02-28T04:55:46.105Z,8.43
2019-02-28T05:00:51.576Z,8.51
2019-02-28T05:05:57.150Z,8.58
2019-02-28T05:11:03.185Z,8.63
2019-02-28T05:16:09.348Z,8.63
2019-02-28T05:21:16.554Z,8.58
2019-02-28T05:26:23.416Z,8.50
2019-02-28T05:31:28.900Z,8.42
2019-02-28T05:36:37.870Z,8.35
2019-02-28T05:41:42.010Z,8.26
2019-02-28T05:46:47.632Z,8.20
2019-02-28T05:51:53.235Z,8.14
2019-02-28T05:56:58.646Z,8.12
2019-02-28T06:02:04.134Z,8.10
2019-02-28T06:07:09.688Z,8.09
2019-02-28T06:12:15.304Z,8.08
2019-02-28T06:17:21.861Z,8.09
2019-02-28T06:22:27.326Z,8.14
2019-02-28T06:27:41.197Z,8.24
2019-02-28T06:32:40.113Z,8.36
2019-02-28T06:37:45.922Z,8.43
2019-02-28T06:42:51.437Z,8.51
2019-02-28T06:47:56.805Z,8.63
2019-02-28T06:53:02.291Z,8.75
2019-02-28T06:58:07.697Z,8.93
2019-02-28T07:03:13.308Z,9.14
2019-02-28T07:08:20.722Z,9.35
2019-02-28T07:13:25.795Z,9.52
2019-02-28T07:18:31.571Z,9.72
2019-02-28T07:23:37.096Z,9.97
2019-02-28T07:28:42.680Z,10.26
2019-02-28T07:33:48.067Z,10.72
2019-02-28T07:38:53.670Z,11.31
2019-02-28T07:43:59.317Z,13.00
2019-02-28T07:49:05.000Z,15.83
2019-02-28T07:54:12.632Z,18.38
2019-02-28T07:59:17.752Z,20.36
2019-02-28T08:04:23.344Z,22.09
2019-02-28T08:09:36.857Z,23.63
2019-02-28T08:14:43.670Z,25.11
2019-02-28T08:19:48.985Z,26.26
2019-02-28T08:24:54.441Z,27.54
2019-02-28T08:29:59.920Z,28.93
2019-02-28T08:35:05.591Z,30.11
2019-02-28T08:40:15.775Z,31.22
2019-02-28T08:45:21.928Z,32.19
2019-02-28T08:50:27.606Z,33.09
2019-02-28T08:55:33.479Z,34.08
2019-02-28T09:00:39.158Z,34.51
2019-02-28T09:05:45.308Z,34.81
2019-02-28T09:10:51.165Z,35.37
2019-02-28T09:15:57.318Z,36.23
2019-02-28T09:21:03.037Z,37.53
2019-02-28T09:26:08.752Z,38.50
2019-02-28T09:31:14.540Z,38.55
2019-02-28T09:36:20.891Z,38.35
2019-02-28T09:41:27.246Z,38.26
2019-02-28T09:46:32.983Z,37.51
2019-02-28T09:51:38.932Z,37.39
2019-02-28T09:56:45.305Z,36.86
2019-02-28T10:01:51.018Z,35.66
2019-02-28T10:06:56.999Z,33.30
2019-02-28T10:12:04.702Z,30.59
2019-02-28T10:17:10.128Z,28.27
2019-02-28T10:22:15.668Z,26.68
2019-02-28T10:27:23.303Z,25.35
2019-02-28T10:32:28.646Z,24.37
2019-02-28T10:37:35.654Z,23.57
2019-02-28T10:42:41.507Z,22.78
2019-02-28T10:47:46.996Z,22.10
2019-02-28T10:52:52.674Z,21.64
2019-02-28T10:57:58.147Z,21.38
2019-02-28T11:03:03.754Z,21.26
2019-02-28T11:08:12.474Z,21.12
2019-02-28T11:13:18.470Z,21.15
2019-02-28T11:18:24.107Z,21.08
2019-02-28T11:23:29.549Z,20.91
2019-02-28T11:28:35.025Z,20.49
2019-02-28T11:33:40.509Z,20.17
2019-02-28T11:38:45.924Z,20.07
2019-02-28T11:43:51.708Z,19.93
2019-02-28T11:48:57.445Z,19.84
2019-02-28T11:54:02.990Z,19.81
2019-02-28T11:59:08.442Z,19.71
2019-02-28T12:04:14.044Z,19.46
2019-02-28T12:09:20.114Z,19.33
2019-02-28T12:14:26.437Z,19.31
2019-02-28T12:19:32.742Z,19.59
2019-02-28T12:24:38.144Z,19.90
2019-02-28T12:29:45.692Z,20.17
2019-02-28T12:34:50.921Z,20.31
2019-02-28T12:39:56.703Z,20.31
2019-02-28T12:45:02.636Z,20.21
2019-02-28T12:50:09.219Z,20.03
2019-02-28T12:55:16.266Z,19.75
2019-02-28T13:00:25.362Z,19.46
2019-02-28T13:05:30.886Z,19.12
2019-02-28T13:10:36.538Z,18.61
2019-02-28T13:15:45.499Z,18.00
2019-02-28T13:20:49.134Z,17.43
2019-02-28T13:25:59.176Z,17.11
2019-02-28T13:31:02.026Z,16.98
2019-02-28T13:36:07.419Z,16.80
2019-02-28T13:41:17.807Z,16.53
2019-02-28T13:46:20.283Z,16.25
2019-02-28T13:51:25.751Z,16.11
2019-02-28T13:56:33.130Z,16.03
2019-02-28T14:01:39.859Z,16.08
2019-02-28T14:06:45.542Z,16.05
2019-02-28T14:11:51.951Z,15.93
2019-02-28T14:16:58.350Z,15.82
2019-02-28T14:22:04.267Z,15.77
2019-02-28T14:27:09.872Z,15.87
2019-02-28T14:32:15.626Z,15.98
2019-02-28T14:37:21.166Z,16.15
2019-02-28T14:42:27.037Z,16.26
2019-02-28T14:47:32.944Z,16.28
2019-02-28T14:52:39.402Z,16.22
2019-02-28T14:57:45.069Z,16.12
2019-02-28T15:02:50.803Z,16.34
2019-02-28T15:07:56.505Z,16.56
2019-02-28T15:13:02.183Z,16.76
2019-02-28T15:18:11.039Z,16.85
2019-02-28T15:23:15.529Z,16.89
2019-02-28T15:28:21.347Z,17.02
2019-02-28T15:33:27.508Z,17.08
2019-02-28T15:38:33.461Z,17.01
2019-02-28T15:43:39.392Z,16.91
2019-02-28T15:48:45.217Z,16.74
2019-02-28T15:53:50.717Z,16.62
2019-02-28T15:58:56.154Z,16.53
2019-02-28T16:04:01.530Z,16.46
2019-02-28T16:09:11.114Z,16.28
2019-02-28T16:14:16.493Z,16.16
2019-02-28T16:19:22.722Z,16.01
2019-02-28T16:24:30.878Z,15.81
2019-02-28T16:29:36.351Z,15.67
2019-02-28T16:34:42.231Z,15.55
2019-02-28T16:39:49.836Z,15.49
2019-02-28T16:44:55.314Z,15.41
2019-02-28T16:50:00.728Z,15.28
2019-02-28T16:55:06.737Z,15.12
2019-02-28T17:00:13.608Z,15.05
2019-02-28T17:05:19.051Z,14.97
2019-02-28T17:10:30.250Z,14.91
2019-02-28T17:16:01.383Z,14.87
2019-02-28T17:21:03.437Z,14.85
2019-02-28T17:26:09.044Z,14.82
2019-02-28T17:31:31.760Z,14.80
2019-02-28T17:36:37.233Z,14.67
2019-02-28T17:41:42.745Z,14.51
2019-02-28T17:46:51.552Z,14.40
2019-02-28T17:52:18.323Z,14.41
2019-02-28T17:58:29.801Z,14.42
2019-02-28T18:04:45.184Z,14.34
2019-02-28T18:10:25.122Z,14.22
2019-02-28T18:16:09.433Z,14.15
2019-02-28T18:21:51.648Z,14.06
2019-02-28T18:27:55.942Z,14.02
2019-02-28T18:33:03.154Z,14.03
2019-02-28T18:38:08.772Z,14.07
2019-02-28T18:43:14.807Z,14.15
2019-02-28T18:48:20.754Z,14.23
2019-02-28T18:53:26.670Z,14.30
2019-02-28T18:58:32.387Z,14.38
2019-02-28T19:03:38.194Z,14.37
2019-02-28T19:08:43.693Z,14.34
2019-02-28T19:13:49.188Z,14.31
2019-02-28T19:18:54.693Z,14.27
2019-02-28T19:24:00.027Z,14.24
2019-02-28T19:29:05.543Z,14.23
2019-02-28T19:34:10.949Z,14.26
2019-02-28T19:39:16.358Z,14.23
2019-02-28T19:44:23.657Z,14.21
2019-02-28T19:49:29.263Z,14.16
2019-02-28T19:54:34.715Z,14.08
2019-02-28T19:59:40.078Z,14.04
2019-02-28T20:04:45.773Z,13.98
2019-02-28T20:09:51.183Z,13.95
2019-02-28T20:14:56.577Z,13.95
2019-02-28T20:20:02.144Z,13.94
2019-02-28T20:25:10.198Z,13.96
2019-02-28T20:30:17.057Z,13.99
2019-02-28T20:35:26.474Z,14.01
2019-02-28T20:40:29.739Z,14.02
2019-02-28T20:45:35.209Z,14.04
2019-02-28T20:50:42.160Z,14.04
2019-02-28T20:55:47.696Z,13.98
2019-02-28T21:00:53.158Z,13.92
2019-02-28T21:05:58.527Z,13.86
2019-02-28T21:11:03.960Z,13.83
2019-02-28T21:16:09.460Z,13.76
2019-02-28T21:21:14.842Z,13.73
2019-02-28T21:26:20.317Z,13.64
2019-02-28T21:31:25.781Z,13.59
2019-02-28T21:36:31.528Z,13.55
2019-02-28T21:41:37.008Z,13.51
2019-02-28T21:46:42.378Z,13.50
2019-02-28T21:51:47.999Z,13.53
2019-02-28T21:56:54.804Z,13.51
2019-02-28T22:02:00.306Z,13.46
2019-02-28T22:07:05.743Z,13.47
2019-02-28T22:12:11.146Z,13.45
2019-02-28T22:17:17.180Z,13.46
2019-02-28T22:22:23.228Z,13.43
2019-02-28T22:27:29.041Z,13.37
2019-02-28T22:32:41.981Z,13.24
2019-02-28T22:37:47.780Z,13.11
2019-02-28T22:42:53.542Z,13.00
2019-02-28T22:47:59.470Z,12.89
2019-02-28T22:53:04.893Z,12.82
2019-02-28T22:58:11.405Z,12.79
2019-02-28T23:03:17.686Z,12.75
2019-02-28T23:08:23.369Z,12.78
2019-02-28T23:13:29.229Z,12.85
2019-02-28T23:18:34.970Z,12.92
2019-02-28T23:23:40.959Z,12.99
2019-02-28T23:28:55.398Z,13.03
2019-02-28T23:34:05.171Z,13.04
2019-02-28T23:39:11.181Z,13.09
2019-02-28T23:44:16.626Z,13.10
2019-02-28T23:49:23.037Z,13.11
2019-02-28T23:54:28.783Z,13.11
2019-02-28T23:59:34.322Z,13.11
